BCS357 LIMC-EBBR
Flight info
| Callsign | BCS357 |
|---|---|
| Flight time | 1h 7m |
| Altitude | 34000 |
| Route | AOSTA DCT ORSUD DCT MOLUS DCT GILIR DCT PENDU DCT IXILU DCT GIVOR/N0431F320 DCT SORAL DCT IBERA N853 DIK Y37 BATTY |
| Aircraft | A333/H-SDE3GHIJ2J3J5M1RVWXY/LB2D1 |
Departure
| Time | 2026-05-06 08:35 |
|---|---|
| Airport | Milan Malpensa International Airport (LIMC) |
Arrival
| Time | 2026-05-06 09:42 |
|---|---|
| Airport | Brussels Airport (EBBR) |
| Time | Latitude | Longitude | Altitude | Speed | Heading |
|---|---|---|---|---|---|
| 2026-05-06 08:07 | 45.61071 | 8.72031 | 715 ft | 0 kts | 260° |
| 2026-05-06 08:23 | 45.61072 | 8.72040 | 715 ft | 3 kts | 261° |
| 2026-05-06 08:23 | 45.61074 | 8.72069 | 714 ft | 3 kts | 270° |
| 2026-05-06 08:23 | 45.61073 | 8.72097 | 714 ft | 3 kts | 283° |
| 2026-05-06 08:24 | 45.61067 | 8.72124 | 715 ft | 3 kts | 303° |
| 2026-05-06 08:24 | 45.61054 | 8.72143 | 715 ft | 3 kts | 337° |
| 2026-05-06 08:24 | 45.61043 | 8.72148 | 715 ft | 1 kts | 349° |
| 2026-05-06 08:24 | 45.61042 | 8.72148 | 715 ft | 0 kts | 349° |
| 2026-05-06 08:26 | 45.61045 | 8.72147 | 715 ft | 2 kts | 349° |
| 2026-05-06 08:27 | 45.61067 | 8.72142 | 715 ft | 4 kts | 350° |
| 2026-05-06 08:27 | 45.61105 | 8.72144 | 712 ft | 6 kts | 17° |
| 2026-05-06 08:27 | 45.61134 | 8.72185 | 716 ft | 5 kts | 67° |
| 2026-05-06 08:27 | 45.61127 | 8.72237 | 716 ft | 6 kts | 126° |
| 2026-05-06 08:28 | 45.61081 | 8.72264 | 714 ft | 9 kts | 166° |
| 2026-05-06 08:28 | 45.61001 | 8.72287 | 702 ft | 14 kts | 168° |
| 2026-05-06 08:28 | 45.60892 | 8.72319 | 698 ft | 18 kts | 169° |
| 2026-05-06 08:28 | 45.60762 | 8.72354 | 702 ft | 20 kts | 169° |
| 2026-05-06 08:29 | 45.60646 | 8.72456 | 700 ft | 20 kts | 109° |
| 2026-05-06 08:29 | 45.60626 | 8.72667 | 699 ft | 22 kts | 96° |
| 2026-05-06 08:29 | 45.60610 | 8.72896 | 698 ft | 24 kts | 95° |
| 2026-05-06 08:29 | 45.60591 | 8.73141 | 701 ft | 25 kts | 93° |
| 2026-05-06 08:30 | 45.60696 | 8.73310 | 699 ft | 25 kts | 22° |
| 2026-05-06 08:30 | 45.60866 | 8.73402 | 703 ft | 27 kts | 11° |
| 2026-05-06 08:30 | 45.60991 | 8.73384 | 700 ft | 28 kts | 348° |
| 2026-05-06 08:30 | 45.61260 | 8.73311 | 714 ft | 31 kts | 349° |
| 2026-05-06 08:31 | 45.61476 | 8.73249 | 713 ft | 32 kts | 349° |
| 2026-05-06 08:31 | 45.61598 | 8.73243 | 717 ft | 12 kts | 35° |
| 2026-05-06 08:31 | 45.61622 | 8.73317 | 715 ft | 13 kts | 79° |
| 2026-05-06 08:31 | 45.61602 | 8.73507 | 715 ft | 17 kts | 116° |
| 2026-05-06 08:32 | 45.61594 | 8.73536 | 715 ft | 0 kts | 108° |
| 2026-05-06 08:33 | 45.61588 | 8.73580 | 714 ft | 10 kts | 95° |
| 2026-05-06 08:33 | 45.61607 | 8.73695 | 696 ft | 13 kts | 55° |
| 2026-05-06 08:34 | 45.61692 | 8.73717 | 714 ft | 14 kts | 351° |
| 2026-05-06 08:34 | 45.62270 | 8.73557 | 728 ft | 107 kts | 349° |
| 2026-05-06 08:34 | 45.63243 | 8.73290 | 744 ft | 176 kts | 347° |
| 2026-05-06 08:35 | 45.64573 | 8.72867 | 1313 ft | 203 kts | 348° |
| 2026-05-06 08:35 | 45.65984 | 8.72531 | 2354 ft | 215 kts | 355° |
| 2026-05-06 08:35 | 45.67583 | 8.72454 | 2793 ft | 243 kts | 2° |
| 2026-05-06 08:35 | 45.69316 | 8.72484 | 3577 ft | 256 kts | 360° |
| 2026-05-06 08:36 | 45.71170 | 8.72404 | 4309 ft | 276 kts | 356° |
| 2026-05-06 08:36 | 45.72993 | 8.71709 | 5405 ft | 277 kts | 326° |
| 2026-05-06 08:36 | 45.74278 | 8.69722 | 6523 ft | 274 kts | 290° |
| 2026-05-06 08:36 | 45.74515 | 8.67117 | 7649 ft | 263 kts | 249° |
| 2026-05-06 08:37 | 45.73673 | 8.64793 | 9159 ft | 268 kts | 231° |
| 2026-05-06 08:37 | 45.72576 | 8.62564 | 10464 ft | 280 kts | 231° |
| 2026-05-06 08:37 | 45.71415 | 8.60270 | 11791 ft | 289 kts | 230° |
| 2026-05-06 08:37 | 45.70253 | 8.57827 | 12761 ft | 309 kts | 234° |
| 2026-05-06 08:38 | 45.69031 | 8.55122 | 13450 ft | 337 kts | 233° |
| 2026-05-06 08:38 | 45.67749 | 8.52287 | 14613 ft | 338 kts | 231° |
| 2026-05-06 08:38 | 45.66468 | 8.49495 | 15873 ft | 337 kts | 231° |
| 2026-05-06 08:38 | 45.65191 | 8.46689 | 16989 ft | 337 kts | 231° |
| 2026-05-06 08:39 | 45.63922 | 8.43877 | 17963 ft | 338 kts | 231° |
| 2026-05-06 08:39 | 45.62606 | 8.41086 | 18767 ft | 339 kts | 227° |
| 2026-05-06 08:39 | 45.61133 | 8.38437 | 19593 ft | 342 kts | 225° |
| 2026-05-06 08:39 | 45.59663 | 8.35735 | 20397 ft | 347 kts | 231° |
| 2026-05-06 08:40 | 45.58595 | 8.32612 | 21222 ft | 355 kts | 245° |
| 2026-05-06 08:40 | 45.58195 | 8.29100 | 22075 ft | 366 kts | 261° |
| 2026-05-06 08:40 | 45.58526 | 8.25450 | 22891 ft | 376 kts | 275° |
| 2026-05-06 08:40 | 45.59307 | 8.21866 | 23632 ft | 380 kts | 279° |
| 2026-05-06 08:41 | 45.60176 | 8.18265 | 24126 ft | 387 kts | 279° |
| 2026-05-06 08:41 | 45.61060 | 8.14606 | 24603 ft | 391 kts | 279° |
| 2026-05-06 08:41 | 45.61938 | 8.10918 | 25187 ft | 393 kts | 278° |
| 2026-05-06 08:41 | 45.62811 | 8.07205 | 25763 ft | 396 kts | 278° |
| 2026-05-06 08:42 | 45.63685 | 8.03455 | 26316 ft | 399 kts | 278° |
| 2026-05-06 08:42 | 45.64557 | 7.99688 | 26910 ft | 400 kts | 278° |
| 2026-05-06 08:42 | 45.65431 | 7.95902 | 27407 ft | 401 kts | 278° |
| 2026-05-06 08:42 | 45.66309 | 7.92098 | 27945 ft | 406 kts | 277° |
| 2026-05-06 08:43 | 45.67195 | 7.88229 | 28460 ft | 410 kts | 280° |
| 2026-05-06 08:43 | 45.68160 | 7.84378 | 29120 ft | 414 kts | 282° |
| 2026-05-06 08:43 | 45.69143 | 7.80486 | 29667 ft | 418 kts | 281° |
| 2026-05-06 08:43 | 45.70100 | 7.76565 | 30213 ft | 418 kts | 281° |
| 2026-05-06 08:44 | 45.71038 | 7.72599 | 30592 ft | 424 kts | 280° |
| 2026-05-06 08:44 | 45.71970 | 7.68571 | 30954 ft | 429 kts | 280° |
| 2026-05-06 08:44 | 45.72907 | 7.64486 | 31373 ft | 432 kts | 279° |
| 2026-05-06 08:44 | 45.73838 | 7.60422 | 31975 ft | 427 kts | 280° |
| 2026-05-06 08:45 | 45.74753 | 7.56390 | 32526 ft | 427 kts | 280° |
| 2026-05-06 08:45 | 45.75667 | 7.52332 | 32988 ft | 429 kts | 280° |
| 2026-05-06 08:45 | 45.76583 | 7.48262 | 33537 ft | 430 kts | 280° |
| 2026-05-06 08:45 | 45.77500 | 7.44183 | 33829 ft | 430 kts | 280° |
| 2026-05-06 08:46 | 45.78537 | 7.40149 | 33861 ft | 435 kts | 286° |
| 2026-05-06 08:46 | 45.81951 | 7.32781 | 33858 ft | 457 kts | 307° |
| 2026-05-06 08:47 | 45.86929 | 7.26898 | 33856 ft | 468 kts | 317° |
| 2026-05-06 08:47 | 45.92277 | 7.21533 | 33854 ft | 469 kts | 319° |
| 2026-05-06 08:48 | 45.97618 | 7.16249 | 33855 ft | 470 kts | 318° |
| 2026-05-06 08:48 | 46.02967 | 7.10840 | 33865 ft | 469 kts | 317° |
| 2026-05-06 08:49 | 46.08285 | 7.05389 | 33859 ft | 469 kts | 317° |
| 2026-05-06 08:49 | 46.13588 | 6.99926 | 33855 ft | 468 kts | 317° |
| 2026-05-06 08:50 | 46.18895 | 6.94452 | 33856 ft | 468 kts | 317° |
| 2026-05-06 08:50 | 46.24199 | 6.88971 | 33857 ft | 470 kts | 317° |
| 2026-05-06 08:51 | 46.29512 | 6.83463 | 33861 ft | 470 kts | 317° |
| 2026-05-06 08:51 | 46.34827 | 6.77945 | 33857 ft | 471 kts | 317° |
| 2026-05-06 08:52 | 46.40152 | 6.72400 | 33861 ft | 472 kts | 317° |
| 2026-05-06 08:52 | 46.45678 | 6.67197 | 33861 ft | 478 kts | 326° |
| 2026-05-06 08:53 | 46.51628 | 6.62805 | 33861 ft | 480 kts | 328° |
| 2026-05-06 08:53 | 46.57651 | 6.58577 | 33852 ft | 481 kts | 328° |
| 2026-05-06 08:54 | 46.63640 | 6.54388 | 33854 ft | 481 kts | 328° |
| 2026-05-06 08:54 | 46.69657 | 6.50146 | 33854 ft | 480 kts | 328° |
| 2026-05-06 08:55 | 46.75661 | 6.45884 | 33853 ft | 479 kts | 329° |
| 2026-05-06 08:55 | 46.81652 | 6.41621 | 33850 ft | 478 kts | 329° |
| 2026-05-06 08:56 | 46.87627 | 6.37358 | 33854 ft | 477 kts | 329° |
| 2026-05-06 08:56 | 46.93592 | 6.33090 | 33846 ft | 477 kts | 329° |
| 2026-05-06 08:57 | 46.99563 | 6.28808 | 33843 ft | 477 kts | 329° |
| 2026-05-06 08:57 | 47.05514 | 6.24531 | 33845 ft | 475 kts | 329° |
| 2026-05-06 08:58 | 47.11448 | 6.20261 | 33841 ft | 474 kts | 329° |
| 2026-05-06 08:58 | 47.17372 | 6.15989 | 33841 ft | 472 kts | 330° |
| 2026-05-06 08:59 | 47.23220 | 6.11760 | 33839 ft | 470 kts | 330° |
| 2026-05-06 08:59 | 47.29059 | 6.07527 | 33840 ft | 466 kts | 330° |
| 2026-05-06 09:00 | 47.35123 | 6.04047 | 33836 ft | 472 kts | 346° |
| 2026-05-06 09:00 | 47.41695 | 6.03324 | 33833 ft | 476 kts | 357° |
| 2026-05-06 09:01 | 47.48324 | 6.03419 | 33831 ft | 475 kts | 359° |
| 2026-05-06 09:01 | 47.54932 | 6.03658 | 33831 ft | 475 kts | 360° |
| 2026-05-06 09:02 | 47.61537 | 6.03861 | 33827 ft | 474 kts | 359° |
| 2026-05-06 09:02 | 47.68133 | 6.04021 | 33825 ft | 472 kts | 359° |
| 2026-05-06 09:03 | 47.74667 | 6.04623 | 33826 ft | 471 kts | 10° |
| 2026-05-06 09:03 | 47.81038 | 6.06701 | 33827 ft | 472 kts | 13° |
| 2026-05-06 09:04 | 47.87440 | 6.09099 | 33825 ft | 471 kts | 14° |
| 2026-05-06 09:04 | 47.93770 | 6.11531 | 33821 ft | 469 kts | 14° |
| 2026-05-06 09:05 | 48.00045 | 6.13926 | 33819 ft | 469 kts | 14° |
| 2026-05-06 09:05 | 48.06412 | 6.16341 | 33815 ft | 468 kts | 14° |
| 2026-05-06 09:06 | 48.12685 | 6.18720 | 33808 ft | 468 kts | 14° |
| 2026-05-06 09:06 | 48.18993 | 6.21119 | 33806 ft | 468 kts | 14° |
| 2026-05-06 09:07 | 48.25298 | 6.23524 | 33805 ft | 468 kts | 14° |
| 2026-05-06 09:07 | 48.31611 | 6.25939 | 33797 ft | 469 kts | 14° |
| 2026-05-06 09:07 | 48.34773 | 6.27151 | 33541 ft | 468 kts | 14° |
| 2026-05-06 09:08 | 48.37933 | 6.28363 | 33295 ft | 469 kts | 14° |
| 2026-05-06 09:08 | 48.41100 | 6.29580 | 33016 ft | 470 kts | 15° |
| 2026-05-06 09:08 | 48.44271 | 6.30800 | 32738 ft | 471 kts | 15° |
| 2026-05-06 09:08 | 48.47456 | 6.32026 | 32474 ft | 473 kts | 15° |
| 2026-05-06 09:09 | 48.50648 | 6.33257 | 32206 ft | 474 kts | 15° |
| 2026-05-06 09:09 | 48.53849 | 6.34494 | 31947 ft | 476 kts | 15° |
| 2026-05-06 09:09 | 48.57069 | 6.35739 | 31810 ft | 477 kts | 15° |
| 2026-05-06 09:10 | 48.63504 | 6.38231 | 31794 ft | 477 kts | 14° |
| 2026-05-06 09:10 | 48.70090 | 6.39568 | 31803 ft | 477 kts | 5° |
| 2026-05-06 09:11 | 48.76713 | 6.40316 | 31801 ft | 477 kts | 3° |
| 2026-05-06 09:11 | 48.82232 | 6.40847 | 31798 ft | 477 kts | 3° |
| 2026-05-06 09:12 | 48.88866 | 6.41487 | 31802 ft | 477 kts | 3° |
| 2026-05-06 09:12 | 48.95500 | 6.42150 | 31808 ft | 478 kts | 3° |
| 2026-05-06 09:13 | 49.02150 | 6.42828 | 31805 ft | 479 kts | 3° |
| 2026-05-06 09:13 | 49.06587 | 6.43282 | 31803 ft | 479 kts | 3° |
| 2026-05-06 09:14 | 49.11236 | 6.43283 | 31803 ft | 477 kts | 352° |
| 2026-05-06 09:14 | 49.17704 | 6.41257 | 31799 ft | 474 kts | 343° |
| 2026-05-06 09:15 | 49.24039 | 6.38703 | 31787 ft | 473 kts | 342° |
| 2026-05-06 09:15 | 49.30388 | 6.36024 | 31790 ft | 473 kts | 342° |
| 2026-05-06 09:15 | 49.33563 | 6.34689 | 31603 ft | 473 kts | 342° |
| 2026-05-06 09:16 | 49.36735 | 6.33364 | 31343 ft | 472 kts | 342° |
| 2026-05-06 09:16 | 49.39907 | 6.32045 | 31088 ft | 471 kts | 342° |
| 2026-05-06 09:16 | 49.43077 | 6.30731 | 30812 ft | 471 kts | 342° |
| 2026-05-06 09:16 | 49.46239 | 6.29420 | 30452 ft | 469 kts | 342° |
| 2026-05-06 09:17 | 49.49387 | 6.28114 | 30010 ft | 468 kts | 341° |
| 2026-05-06 09:17 | 49.52527 | 6.26817 | 29555 ft | 464 kts | 341° |
| 2026-05-06 09:17 | 49.55628 | 6.25547 | 29088 ft | 457 kts | 341° |
| 2026-05-06 09:17 | 49.58680 | 6.24300 | 28618 ft | 452 kts | 341° |
| 2026-05-06 09:18 | 49.61705 | 6.23063 | 28156 ft | 446 kts | 341° |
| 2026-05-06 09:18 | 49.64683 | 6.21843 | 27672 ft | 441 kts | 341° |
| 2026-05-06 09:18 | 49.67641 | 6.20629 | 27215 ft | 438 kts | 341° |
| 2026-05-06 09:18 | 49.70569 | 6.19424 | 26764 ft | 434 kts | 341° |
| 2026-05-06 09:19 | 49.73481 | 6.18222 | 26323 ft | 431 kts | 341° |
| 2026-05-06 09:19 | 49.76366 | 6.17031 | 25886 ft | 428 kts | 341° |
| 2026-05-06 09:19 | 49.79228 | 6.15848 | 25459 ft | 424 kts | 342° |
| 2026-05-06 09:19 | 49.82078 | 6.14668 | 25048 ft | 421 kts | 342° |
| 2026-05-06 09:20 | 49.84854 | 6.13518 | 24641 ft | 418 kts | 342° |
| 2026-05-06 09:20 | 49.87675 | 6.12434 | 24231 ft | 415 kts | 344° |
| 2026-05-06 09:20 | 49.90483 | 6.11439 | 23828 ft | 413 kts | 345° |
| 2026-05-06 09:20 | 49.93277 | 6.10461 | 23426 ft | 411 kts | 345° |
| 2026-05-06 09:21 | 49.96060 | 6.09487 | 22958 ft | 408 kts | 345° |
| 2026-05-06 09:21 | 49.98821 | 6.08518 | 22490 ft | 406 kts | 345° |
| 2026-05-06 09:21 | 50.01567 | 6.07551 | 22031 ft | 403 kts | 345° |
| 2026-05-06 09:21 | 50.04290 | 6.06589 | 21590 ft | 400 kts | 345° |
| 2026-05-06 09:22 | 50.06990 | 6.05636 | 21143 ft | 396 kts | 346° |
| 2026-05-06 09:22 | 50.09665 | 6.04689 | 20704 ft | 392 kts | 346° |
| 2026-05-06 09:22 | 50.12319 | 6.03749 | 20280 ft | 390 kts | 346° |
| 2026-05-06 09:22 | 50.14956 | 6.02813 | 19849 ft | 387 kts | 346° |
| 2026-05-06 09:23 | 50.17578 | 6.01882 | 19432 ft | 385 kts | 346° |
| 2026-05-06 09:23 | 50.20185 | 6.00955 | 19002 ft | 383 kts | 345° |
| 2026-05-06 09:23 | 50.22772 | 6.00034 | 18593 ft | 381 kts | 345° |
| 2026-05-06 09:23 | 50.25349 | 5.99115 | 18198 ft | 379 kts | 345° |
| 2026-05-06 09:24 | 50.27908 | 5.98202 | 17766 ft | 376 kts | 346° |
| 2026-05-06 09:24 | 50.30455 | 5.97292 | 17304 ft | 374 kts | 346° |
| 2026-05-06 09:24 | 50.32983 | 5.96388 | 16846 ft | 371 kts | 346° |
| 2026-05-06 09:24 | 50.35486 | 5.95493 | 16406 ft | 367 kts | 346° |
| 2026-05-06 09:25 | 50.37969 | 5.94603 | 15968 ft | 364 kts | 345° |
| 2026-05-06 09:25 | 50.40427 | 5.93721 | 15551 ft | 361 kts | 345° |
| 2026-05-06 09:25 | 50.42870 | 5.92844 | 15107 ft | 358 kts | 345° |
| 2026-05-06 09:25 | 50.45289 | 5.91975 | 14702 ft | 355 kts | 345° |
| 2026-05-06 09:26 | 50.47687 | 5.91112 | 14292 ft | 352 kts | 345° |
| 2026-05-06 09:26 | 50.50066 | 5.90255 | 13889 ft | 349 kts | 345° |
| 2026-05-06 09:26 | 50.52423 | 5.89405 | 13473 ft | 346 kts | 345° |
| 2026-05-06 09:26 | 50.54765 | 5.88563 | 13001 ft | 344 kts | 345° |
| 2026-05-06 09:27 | 50.57090 | 5.87722 | 12563 ft | 341 kts | 345° |
| 2026-05-06 09:27 | 50.59395 | 5.86887 | 12124 ft | 339 kts | 346° |
| 2026-05-06 09:27 | 50.61678 | 5.86023 | 11688 ft | 336 kts | 342° |
| 2026-05-06 09:27 | 50.63813 | 5.84602 | 11257 ft | 331 kts | 327° |
| 2026-05-06 09:28 | 50.65526 | 5.82312 | 10823 ft | 327 kts | 309° |
| 2026-05-06 09:28 | 50.66765 | 5.79340 | 10357 ft | 324 kts | 298° |
| 2026-05-06 09:28 | 50.67792 | 5.76202 | 9884 ft | 319 kts | 296° |
| 2026-05-06 09:28 | 50.68759 | 5.73123 | 9565 ft | 307 kts | 296° |
| 2026-05-06 09:29 | 50.69687 | 5.70180 | 9290 ft | 293 kts | 296° |
| 2026-05-06 09:29 | 50.70582 | 5.67361 | 9021 ft | 282 kts | 296° |
| 2026-05-06 09:29 | 50.71455 | 5.64614 | 8744 ft | 279 kts | 296° |
| 2026-05-06 09:29 | 50.72326 | 5.61878 | 8516 ft | 279 kts | 296° |
| 2026-05-06 09:30 | 50.73199 | 5.59143 | 8249 ft | 279 kts | 299° |
| 2026-05-06 09:30 | 50.74068 | 5.56419 | 7981 ft | 278 kts | 299° |
| 2026-05-06 09:30 | 50.74934 | 5.53696 | 7726 ft | 277 kts | 299° |
| 2026-05-06 09:30 | 50.75794 | 5.50992 | 7471 ft | 275 kts | 299° |
| 2026-05-06 09:31 | 50.76654 | 5.48291 | 7218 ft | 275 kts | 299° |
| 2026-05-06 09:31 | 50.77512 | 5.45601 | 6973 ft | 274 kts | 300° |
| 2026-05-06 09:31 | 50.78366 | 5.42917 | 6852 ft | 273 kts | 300° |
| 2026-05-06 09:31 | 50.79236 | 5.40251 | 6825 ft | 273 kts | 300° |
| 2026-05-06 09:32 | 50.80084 | 5.37574 | 6845 ft | 272 kts | 299° |
| 2026-05-06 09:32 | 50.80927 | 5.34890 | 6847 ft | 272 kts | 299° |
| 2026-05-06 09:32 | 50.81770 | 5.32208 | 6847 ft | 272 kts | 299° |
| 2026-05-06 09:32 | 50.82615 | 5.29524 | 6847 ft | 272 kts | 299° |
| 2026-05-06 09:33 | 50.83459 | 5.26847 | 6839 ft | 273 kts | 299° |
| 2026-05-06 09:33 | 50.84306 | 5.24158 | 6844 ft | 272 kts | 299° |
| 2026-05-06 09:33 | 50.85150 | 5.21479 | 6843 ft | 272 kts | 300° |
| 2026-05-06 09:33 | 50.85994 | 5.18801 | 6840 ft | 272 kts | 299° |
| 2026-05-06 09:34 | 50.86839 | 5.16113 | 6834 ft | 273 kts | 299° |
| 2026-05-06 09:34 | 50.87660 | 5.13393 | 6837 ft | 274 kts | 296° |
| 2026-05-06 09:34 | 50.88379 | 5.10630 | 6341 ft | 277 kts | 294° |
| 2026-05-06 09:34 | 50.89075 | 5.07790 | 5816 ft | 276 kts | 294° |
| 2026-05-06 09:35 | 50.89760 | 5.04956 | 5296 ft | 275 kts | 294° |
| 2026-05-06 09:35 | 50.90445 | 5.02141 | 4813 ft | 273 kts | 294° |
| 2026-05-06 09:35 | 50.91127 | 4.99341 | 4291 ft | 272 kts | 294° |
| 2026-05-06 09:35 | 50.91803 | 4.96552 | 3831 ft | 270 kts | 294° |
| 2026-05-06 09:36 | 50.92476 | 4.93781 | 3340 ft | 268 kts | 294° |
| 2026-05-06 09:36 | 50.93138 | 4.91047 | 3015 ft | 261 kts | 294° |
| 2026-05-06 09:36 | 50.93767 | 4.88439 | 2948 ft | 244 kts | 294° |
| 2026-05-06 09:36 | 50.94349 | 4.86022 | 2951 ft | 226 kts | 294° |
| 2026-05-06 09:37 | 50.94891 | 4.83769 | 2956 ft | 211 kts | 295° |
| 2026-05-06 09:37 | 50.95393 | 4.81685 | 2978 ft | 193 kts | 295° |
| 2026-05-06 09:37 | 50.95762 | 4.79732 | 2946 ft | 180 kts | 281° |
| 2026-05-06 09:37 | 50.95696 | 4.77821 | 2949 ft | 170 kts | 262° |
| 2026-05-06 09:38 | 50.95361 | 4.76059 | 2957 ft | 163 kts | 253° |
| 2026-05-06 09:38 | 50.94981 | 4.74429 | 2955 ft | 155 kts | 253° |
| 2026-05-06 09:38 | 50.94611 | 4.72835 | 2925 ft | 154 kts | 253° |
| 2026-05-06 09:38 | 50.94251 | 4.71254 | 2756 ft | 152 kts | 254° |
| 2026-05-06 09:39 | 50.93890 | 4.69678 | 2527 ft | 152 kts | 253° |
| 2026-05-06 09:39 | 50.93525 | 4.68095 | 2316 ft | 153 kts | 255° |
| 2026-05-06 09:39 | 50.93162 | 4.66513 | 2105 ft | 152 kts | 255° |
| 2026-05-06 09:39 | 50.92806 | 4.64965 | 1901 ft | 150 kts | 254° |
| 2026-05-06 09:40 | 50.92448 | 4.63415 | 1687 ft | 145 kts | 255° |
| 2026-05-06 09:40 | 50.92111 | 4.61955 | 1494 ft | 136 kts | 256° |
| 2026-05-06 09:40 | 50.91503 | 4.59312 | 1134 ft | 125 kts | 256° |
| 2026-05-06 09:41 | 50.91200 | 4.57992 | 966 ft | 126 kts | 255° |
| 2026-05-06 09:41 | 50.90907 | 4.56713 | 788 ft | 124 kts | 254° |
| 2026-05-06 09:41 | 50.90621 | 4.55433 | 651 ft | 122 kts | 253° |
| 2026-05-06 09:41 | 50.90328 | 4.54189 | 467 ft | 118 kts | 252° |
| 2026-05-06 09:42 | 50.90045 | 4.52965 | 314 ft | 118 kts | 254° |
| 2026-05-06 09:42 | 50.89762 | 4.51752 | 172 ft | 118 kts | 252° |
| 2026-05-06 09:42 | 50.89510 | 4.50661 | 158 ft | 90 kts | 249° |
| 2026-05-06 09:42 | 50.89352 | 4.49982 | 163 ft | 39 kts | 250° |
| 2026-05-06 09:43 | 50.89387 | 4.49639 | 153 ft | 13 kts | 307° |
| 2026-05-06 09:43 | 50.89439 | 4.49527 | 157 ft | 13 kts | 307° |
| 2026-05-06 09:43 | 50.89501 | 4.49398 | 156 ft | 21 kts | 307° |
| 2026-05-06 09:43 | 50.89617 | 4.49258 | 148 ft | 21 kts | 1° |
| 2026-05-06 09:44 | 50.89764 | 4.49310 | 148 ft | 23 kts | 14° |
| 2026-05-06 09:44 | 50.89926 | 4.49375 | 148 ft | 25 kts | 15° |
| 2026-05-06 09:44 | 50.90098 | 4.49447 | 148 ft | 27 kts | 14° |
| 2026-05-06 09:44 | 50.90283 | 4.49522 | 147 ft | 28 kts | 14° |
| 2026-05-06 09:45 | 50.90478 | 4.49600 | 147 ft | 30 kts | 14° |
| 2026-05-06 09:45 | 50.90680 | 4.49684 | 146 ft | 31 kts | 15° |
| 2026-05-06 09:45 | 50.90816 | 4.49709 | 146 ft | 8 kts | 329° |
| 2026-05-06 09:45 | 50.90856 | 4.49617 | 146 ft | 13 kts | 288° |
| 2026-05-06 09:46 | 50.90838 | 4.49463 | 145 ft | 17 kts | 246° |
| 2026-05-06 09:46 | 50.90781 | 4.49262 | 146 ft | 22 kts | 245° |
| 2026-05-06 09:46 | 50.90712 | 4.49026 | 145 ft | 25 kts | 245° |
| 2026-05-06 09:46 | 50.90635 | 4.48760 | 145 ft | 28 kts | 245° |
| 2026-05-06 09:47 | 50.90552 | 4.48467 | 146 ft | 30 kts | 245° |
| 2026-05-06 09:47 | 50.90462 | 4.48157 | 146 ft | 32 kts | 245° |
| 2026-05-06 09:47 | 50.90365 | 4.47824 | 146 ft | 32 kts | 245° |
| 2026-05-06 09:47 | 50.90275 | 4.47514 | 146 ft | 32 kts | 246° |
| 2026-05-06 09:48 | 50.90191 | 4.47221 | 147 ft | 19 kts | 245° |
| 2026-05-06 09:48 | 50.90184 | 4.47088 | 146 ft | 3 kts | 291° |
| 2026-05-06 09:49 | 50.90198 | 4.47035 | 145 ft | 11 kts | 293° |
| 2026-05-06 09:49 | 50.90242 | 4.46889 | 140 ft | 19 kts | 296° |
| 2026-05-06 09:49 | 50.90304 | 4.46695 | 144 ft | 19 kts | 297° |
| 2026-05-06 09:50 | 50.90358 | 4.46503 | 147 ft | 18 kts | 284° |
| 2026-05-06 09:50 | 50.90416 | 4.46388 | 147 ft | 14 kts | 333° |
| 2026-05-06 09:50 | 50.90461 | 4.46354 | 147 ft | 0 kts | 335° |